Time;durP1;ratioP1;P1;durP2;ratioP2;P2;SDS_P1;SDS_P2;PMS_P1;PMS_P2;Temp;Humidity;BMP_temperature;BMP_pressure;BME280_temperature;BME280_humidity;BME280_pressure;Samples;Min_cycle;Max_cycle;Signal;HPM_P1;HPM_P2
2023/11/26 00:01:55;;;;;;;11.57;3.40;;;7.20;99.90;;;;;;5049083;28;20485;-92
2023/11/26 00:04:35;;;;;;;13.35;3.35;;;6.60;99.90;;;;;;5048387;28;20548;-92
2023/11/26 00:07:01;;;;;;;9.63;2.97;;;6.90;99.90;;;;;;5044920;28;20484;-90
2023/11/26 00:09:36;;;;;;;18.45;3.47;;;5.90;99.90;;;;;;5033874;28;20034;-93
2023/11/26 00:12:07;;;;;;;16.98;3.78;;;7.20;99.90;;;;;;5034316;28;20026;-92
2023/11/26 00:14:37;;;;;;;10.63;3.60;;;5.70;99.90;;;;;;5040229;28;20020;-93
2023/11/26 00:17:22;;;;;;;19.85;3.47;;;6.60;99.90;;;;;;5061678;22;20104;-92
2023/11/26 00:19:56;;;;;;;10.93;4.00;;;6.90;99.90;;;;;;5053720;28;20493;-91
2023/11/26 00:22:26;;;;;;;8.85;3.17;;;6.10;99.90;;;;;;5054203;28;20108;-92
2023/11/26 00:24:55;;;;;;;16.88;5.07;;;7.20;99.90;;;;;;5053329;28;20063;-90
2023/11/26 00:27:25;;;;;;;15.40;5.28;;;6.90;99.90;;;;;;5054376;28;20021;-91
2023/11/26 00:29:51;;;;;;;23.93;6.30;;;5.10;99.90;;;;;;5082154;22;20060;-91
2023/11/26 00:32:25;;;;;;;14.48;3.90;;;6.30;99.90;;;;;;5056849;22;20303;-93
2023/11/26 00:34:51;;;;;;;14.25;3.13;;;6.90;99.90;;;;;;5046902;28;20060;-90
2023/11/26 00:37:24;;;;;;;9.52;2.50;;;6.80;99.90;;;;;;5076749;22;20048;-91
2023/11/26 00:40:05;;;;;;;13.77;2.50;;;6.70;99.90;;;;;;5061268;28;20104;-93
2023/11/26 00:42:34;;;;;;;11.98;2.38;;;6.30;99.90;;;;;;5050833;28;20033;-90
2023/11/26 00:45:14;;;;;;;10.73;2.10;;;6.00;99.90;;;;;;5041577;28;20025;-92
2023/11/26 00:47:40;;;;;;;18.35;3.88;;;5.90;99.90;;;;;;5041784;28;20034;-92
2023/11/26 00:50:11;;;;;;;7.78;2.00;;;6.10;99.90;;;;;;5039338;28;20048;-92
2023/11/26 00:52:40;;;;;;;9.57;2.28;;;6.80;99.90;;;;;;5041103;28;20018;-90
2023/11/26 00:55:11;;;;;;;15.80;2.50;;;6.60;99.90;;;;;;5045154;28;20108;-93
2023/11/26 00:57:46;;;;;;;10.77;2.50;;;5.90;99.90;;;;;;5052711;28;20025;-91
2023/11/26 01:00:12;;;;;;;5.65;1.70;;;6.40;99.90;;;;;;5049878;28;20021;-92
2023/11/26 01:02:46;;;;;;;10.25;1.67;;;5.90;99.90;;;;;;5049316;28;20030;-92
2023/11/26 01:05:14;;;;;;;11.88;2.08;;;5.90;99.90;;;;;;5056845;28;20029;-92
2023/11/26 01:10:24;;;;;;;10.75;2.63;;;5.90;99.90;;;;;;5129177;22;20277;-93
2023/11/26 01:12:49;;;;;;;11.80;2.83;;;5.90;99.90;;;;;;5074538;28;20028;-89
2023/11/26 01:15:16;;;;;;;9.23;1.80;;;6.90;99.90;;;;;;5071775;28;20040;-90
2023/11/26 01:17:50;;;;;;;9.32;1.75;;;6.90;99.90;;;;;;5064732;28;20075;-93
2023/11/26 01:20:37;;;;;;;13.90;2.58;;;5.30;99.90;;;;;;5061427;28;20029;-94
2023/11/26 01:23:09;;;;;;;7.38;2.05;;;6.00;99.90;;;;;;5050874;28;20030;-94
2023/11/26 01:25:47;;;;;;;11.77;2.95;;;5.50;99.90;;;;;;5068484;28;20029;-91
2023/11/26 01:28:17;;;;;;;8.30;2.10;;;7.20;99.90;;;;;;5064766;28;20045;-92
2023/11/26 01:31:23;;;;;;;8.68;2.35;;;6.80;99.90;;;;;;5052851;28;20086;-92
2023/11/26 01:34:29;;;;;;;13.10;1.83;;;6.10;99.90;;;;;;5042540;28;20025;-93
2023/11/26 01:40:09;;;;;;;;;;;;;;;;;;;;;
2023/11/26 01:48:18;;;;;;;8.23;2.13;;;6.10;99.90;;;;;;5085162;22;20061;-93
2023/11/26 01:54:56;;;;;;;10.35;1.73;;;5.70;99.90;;;;;;5060050;22;20202;-93
2023/11/26 01:57:25;;;;;;;12.80;2.30;;;6.10;99.90;;;;;;5067904;28;20029;-93
2023/11/26 01:59:57;;;;;;;10.48;2.05;;;6.90;99.90;;;;;;5065535;28;20032;-92
2023/11/26 02:02:31;;;;;;;5.50;1.60;;;5.70;99.90;;;;;;5061981;28;20074;-92
2023/11/26 02:04:57;;;;;;;5.68;1.40;;;6.70;99.90;;;;;;5058045;28;20124;-94
2023/11/26 02:07:23;;;;;;;6.35;1.30;;;6.80;99.90;;;;;;5070250;28;20476;-93
2023/11/26 02:09:54;;;;;;;6.53;1.40;;;6.80;99.90;;;;;;5068468;28;20549;-92
2023/11/26 02:15:41;;;;;;;;;;;;;;;;;;;;;
2023/11/26 02:18:29;;;;;;;7.25;1.55;;;6.00;99.90;;;;;;4986901;28;20041;-93
2023/11/26 02:21:01;;;;;;;6.63;1.40;;;5.30;99.90;;;;;;5072781;28;20016;-93
2023/11/26 02:23:39;;;;;;;4.05;1.75;;;5.70;99.90;;;;;;5065338;28;20051;-93
2023/11/26 02:26:19;;;;;;;7.07;1.75;;;5.30;99.90;;;;;;5073465;22;20056;-92
2023/11/26 02:28:58;;;;;;;4.93;1.52;;;6.70;99.90;;;;;;5078921;22;20053;-93
2023/11/26 02:31:28;;;;;;;9.50;2.85;;;6.90;99.90;;;;;;5046202;28;20045;-92
2023/11/26 02:34:02;;;;;;;10.55;2.33;;;6.20;99.90;;;;;;5025937;28;20029;-93
2023/11/26 02:36:38;;;;;;;6.57;1.13;;;6.00;99.90;;;;;;5021021;28;20065;-94
2023/11/26 02:39:09;;;;;;;3.45;0.75;;;6.00;99.90;;;;;;5037244;28;20022;-93
2023/11/26 02:42:12;;;;;;;10.90;1.60;;;6.00;99.90;;;;;;5030647;28;20069;-94
2023/11/26 02:45:10;;;;;;;5.05;1.05;;;5.90;99.90;;;;;;5034408;28;20057;-93
2023/11/26 02:47:43;;;;;;;10.57;1.42;;;6.00;99.90;;;;;;5011311;28;20061;-92
2023/11/26 02:50:19;;;;;;;8.88;1.00;;;5.50;99.90;;;;;;5024248;28;20061;-93
2023/11/26 02:53:06;;;;;;;;;;;;;;;;;;;;;
2023/11/26 03:05:03;;;;;;;;;;;;;;;;;;;;;
2023/11/26 03:19:06;;;;;;;;;;;;;;;;;;;;;
2023/11/26 03:30:16;;;;;;;4.38;1.05;;;6.20;99.90;;;;;;5089070;22;20052;-94
2023/11/26 03:32:51;;;;;;;5.18;1.20;;;6.20;99.90;;;;;;5036348;28;20056;-94
2023/11/26 03:35:45;;;;;;;4.63;1.13;;;5.30;99.90;;;;;;4987330;28;20045;-94
2023/11/26 03:39:01;;;;;;;5.03;1.30;;;6.20;99.90;;;;;;4955525;28;20066;-92
2023/11/26 04:45:33;;;;;;;9.82;1.45;;;6.40;99.90;;;;;;4225987;22;21658;-93
2023/11/26 04:48:10;;;;;;;7.03;1.27;;;6.40;99.90;;;;;;5044974;28;20275;-94
2023/11/26 05:02:09;;;;;;;6.53;1.33;;;6.50;99.90;;;;;;5927956;22;20064;-92
2023/11/26 05:07:39;;;;;;;5.43;1.42;;;5.80;99.90;;;;;;5047894;28;20041;-88
2023/11/26 05:10:09;;;;;;;4.82;1.13;;;7.60;99.90;;;;;;5053346;28;20123;-89
2023/11/26 05:15:09;;;;;;;5.22;1.20;;;6.70;99.90;;;;;;5054157;28;20071;-93
2023/11/26 05:17:35;;;;;;;2.22;0.85;;;6.70;99.90;;;;;;5057842;22;20125;-93
2023/11/26 05:20:12;;;;;;;3.95;1.20;;;6.90;99.90;;;;;;5039795;28;20041;-94
2023/11/26 05:22:38;;;;;;;8.80;1.42;;;6.70;99.90;;;;;;5011448;28;20033;-91
2023/11/26 05:25:52;;;;;;;;;;;;;;;;;;;;;
2023/11/26 05:28:22;;;;;;;10.15;1.92;;;6.70;99.90;;;;;;4990533;28;20104;-95
2023/11/26 05:30:55;;;;;;;7.10;1.63;;;6.70;99.90;;;;;;5023693;28;20038;-94
2023/11/26 05:33:38;;;;;;;7.00;1.10;;;6.70;99.90;;;;;;5035553;28;20026;-93
2023/11/26 05:39:22;;;;;;;9.25;1.30;;;6.80;99.90;;;;;;5107900;22;20451;-95
2023/11/26 05:42:28;;;;;;;10.20;1.65;;;6.20;99.90;;;;;;5052819;28;20045;-95
2023/11/26 05:45:25;;;;;;;5.60;1.15;;;6.70;99.90;;;;;;5038509;28;20038;-94
2023/11/26 06:01:41;;;;;;;9.35;1.75;;;6.90;99.90;;;;;;5002382;28;20100;-91
2023/11/26 06:20:24;;;;;;;10.70;1.65;;;6.90;99.90;;;;;;5156510;22;20087;-94
2023/11/26 06:22:55;;;;;;;3.00;1.35;;;7.40;99.90;;;;;;5055005;28;20028;-93
2023/11/26 06:25:26;;;;;;;3.42;1.40;;;7.80;99.90;;;;;;5056363;28;20044;-91
2023/11/26 06:27:55;;;;;;;7.80;1.55;;;6.80;99.90;;;;;;5056938;28;20466;-92
2023/11/26 06:30:21;;;;;;;5.03;1.73;;;7.20;99.90;;;;;;5043222;28;20044;-93
2023/11/26 06:32:49;;;;;;;6.95;1.80;;;7.50;99.90;;;;;;5084670;22;20051;-94
2023/11/26 06:35:32;;;;;;;6.43;1.50;;;7.60;99.90;;;;;;5172318;22;20063;-93
2023/11/26 06:44:34;;;;;;;5.72;1.35;;;7.00;99.90;;;;;;5036091;28;20036;-94
2023/11/26 06:47:06;;;;;;;;;;;7.20;99.90;;;;;;5074845;28;20028;-94
2023/11/26 06:52:22;;;;;;;10.85;2.20;;;7.10;99.90;;;;;;5106489;22;20062;-91
2023/11/26 06:54:51;;;;;;;7.72;2.10;;;7.00;99.90;;;;;;5035727;28;20022;-91
2023/11/26 06:58:04;;;;;;;13.07;1.75;;;6.30;99.90;;;;;;5345361;22;20057;-90
2023/11/26 07:00:40;;;;;;;11.27;2.17;;;7.00;99.90;;;;;;5042893;28;20024;-91
2023/11/26 07:03:14;;;;;;;14.95;2.30;;;7.60;99.90;;;;;;5076768;28;20029;-91
2023/11/26 07:06:20;;;;;;;5.40;1.42;;;6.70;99.90;;;;;;5059503;28;20025;-94
2023/11/26 07:08:56;;;;;;;12.40;1.92;;;7.00;99.90;;;;;;5050566;22;20020;-94
2023/11/26 07:11:33;;;;;;;7.85;1.73;;;7.20;99.90;;;;;;5127024;22;20408;-94
2023/11/26 07:13:59;;;;;;;5.47;1.98;;;7.10;99.90;;;;;;5058009;28;20059;-89
2023/11/26 07:16:27;;;;;;;11.40;2.33;;;6.90;99.90;;;;;;5071080;28;20013;-91
2023/11/26 07:18:53;;;;;;;13.65;4.00;;;7.80;99.90;;;;;;5029107;28;20033;-88
2023/11/26 07:21:55;;;;;;;6.75;2.60;;;8.10;99.90;;;;;;5047484;22;20051;-92
2023/11/26 07:24:24;;;;;;;5.05;2.17;;;7.40;99.90;;;;;;4923124;29;20091;-89
2023/11/26 07:27:09;;;;;;;12.38;2.70;;;7.70;99.90;;;;;;5026539;28;20036;-89
2023/11/26 07:29:35;;;;;;;12.73;2.38;;;7.00;99.90;;;;;;5047104;22;20080;-90
2023/11/26 07:32:01;;;;;;;9.18;2.05;;;7.40;99.90;;;;;;5031574;28;20029;-89
2023/11/26 07:34:26;;;;;;;14.40;2.45;;;7.80;99.90;;;;;;5031950;28;20068;-89
2023/11/26 07:36:52;;;;;;;8.43;1.80;;;7.00;99.90;;;;;;5032820;28;20236;-90
2023/11/26 07:39:17;;;;;;;7.43;2.17;;;7.80;99.90;;;;;;5033963;28;20040;-90
2023/11/26 07:41:46;;;;;;;12.15;2.63;;;8.10;99.90;;;;;;5033819;28;20104;-90
2023/11/26 07:44:13;;;;;;;8.07;2.45;;;7.80;99.90;;;;;;5032913;28;20385;-90
2023/11/26 07:46:40;;;;;;;12.40;2.45;;;7.00;99.90;;;;;;5032630;28;20529;-88
2023/11/26 07:49:06;;;;;;;6.45;2.58;;;7.00;99.90;;;;;;5032023;28;20124;-89
2023/11/26 07:51:31;;;;;;;5.40;2.00;;;7.00;99.90;;;;;;5030898;28;20089;-89
2023/11/26 07:53:57;;;;;;;5.03;2.28;;;7.00;99.90;;;;;;5047645;28;20021;-89
2023/11/26 07:56:25;;;;;;;13.38;2.17;;;7.00;99.90;;;;;;5035702;28;20037;-89
2023/11/26 07:58:50;;;;;;;8.18;1.80;;;7.60;99.90;;;;;;5032566;28;20080;-89
2023/11/26 08:01:18;;;;;;;10.85;2.03;;;7.00;99.90;;;;;;5033065;28;20022;-90
2023/11/26 08:03:44;;;;;;;4.45;1.77;;;7.00;99.90;;;;;;5032113;28;20037;-89
2023/11/26 08:06:13;;;;;;;8.00;1.77;;;7.00;99.90;;;;;;5024135;28;20053;-89
2023/11/26 08:08:40;;;;;;;9.00;2.90;;;7.00;99.90;;;;;;5018403;28;20120;-88
2023/11/26 08:11:08;;;;;;;9.57;2.22;;;8.00;99.90;;;;;;5023479;28;20051;-88
2023/11/26 08:13:41;;;;;;;9.48;2.20;;;7.00;99.90;;;;;;5017606;28;20082;-89
2023/11/26 08:16:09;;;;;;;6.68;2.45;;;7.80;99.90;;;;;;5020642;28;20064;-89
2023/11/26 08:18:39;;;;;;;9.50;2.25;;;7.00;99.90;;;;;;5011897;28;20029;-87
2023/11/26 08:21:06;;;;;;;10.25;3.63;;;7.80;99.90;;;;;;5023190;28;20032;-88
2023/11/26 08:23:50;;;;;;;8.63;2.47;;;7.10;99.90;;;;;;5016522;28;20116;-89
2023/11/26 08:26:39;;;;;;;7.63;2.47;;;6.70;99.90;;;;;;5031000;28;20029;-89
2023/11/26 08:29:04;;;;;;;13.27;2.97;;;7.30;99.90;;;;;;5015674;28;20049;-87
2023/11/26 08:31:31;;;;;;;10.43;2.85;;;7.10;99.90;;;;;;5027395;22;20140;-90
2023/11/26 08:33:57;;;;;;;8.07;2.35;;;7.10;99.90;;;;;;5006333;28;20029;-91
2023/11/26 08:39:26;;;;;;;11.48;2.53;;;6.70;99.90;;;;;;5096140;22;20139;-91
2023/11/26 08:42:18;;;;;;;6.55;1.92;;;7.10;99.90;;;;;;5061740;28;20025;-94
2023/11/26 08:44:56;;;;;;;6.35;2.00;;;6.50;99.90;;;;;;5016914;28;20112;-92
2023/11/26 08:50:04;;;;;;;8.65;2.28;;;7.20;99.90;;;;;;5487966;22;20033;-95
2023/11/26 08:58:23;;;;;;;7.88;2.33;;;7.20;99.90;;;;;;5279468;22;20049;-93
2023/11/26 09:00:49;;;;;;;7.95;1.75;;;7.20;99.90;;;;;;5033863;28;20079;-87
2023/11/26 09:03:15;;;;;;;5.50;1.85;;;7.10;99.90;;;;;;5035718;28;20029;-88
2023/11/26 09:06:08;;;;;;;9.88;2.35;;;8.30;99.90;;;;;;5049910;28;20030;-89
2023/11/26 09:11:42;;;;;;;15.47;4.60;;;7.20;99.90;;;;;;5118775;22;20061;-93
2023/11/26 09:14:12;;;;;;;8.70;2.58;;;7.10;99.90;;;;;;5014053;28;20754;-88
2023/11/26 09:17:12;;;;;;;8.77;2.10;;;7.20;99.90;;;;;;5015436;28;20121;-87
2023/11/26 09:19:43;;;;;;;9.10;2.35;;;6.90;99.90;;;;;;4952101;28;20395;-87
2023/11/26 09:22:16;;;;;;;7.78;2.15;;;7.20;99.90;;;;;;5012475;28;20057;-88
2023/11/26 09:24:42;;;;;;;5.35;2.03;;;7.10;99.90;;;;;;5012424;28;20053;-87
2023/11/26 09:27:13;;;;;;;11.00;1.98;;;7.80;99.90;;;;;;5011344;28;20061;-83
2023/11/26 09:29:39;;;;;;;13.20;3.10;;;8.10;99.90;;;;;;5009580;28;20026;-85
2023/11/26 09:32:11;;;;;;;8.18;2.05;;;7.30;99.90;;;;;;5010932;28;20041;-87
2023/11/26 09:34:36;;;;;;;9.50;2.42;;;7.50;99.90;;;;;;5011420;28;20458;-86
2023/11/26 09:37:04;;;;;;;4.43;1.95;;;8.70;99.90;;;;;;5012701;28;20040;-85
2023/11/26 09:39:37;;;;;;;6.35;2.13;;;8.40;99.90;;;;;;5028247;28;20030;-87
2023/11/26 09:42:13;;;;;;;7.00;2.67;;;8.40;99.90;;;;;;5014888;28;20177;-86
2023/11/26 09:44:44;;;;;;;12.63;2.83;;;7.50;99.90;;;;;;5011235;28;20394;-88
2023/11/26 09:47:13;;;;;;;7.50;2.72;;;8.40;99.90;;;;;;5006758;28;20049;-89
2023/11/26 09:49:46;;;;;;;5.18;2.47;;;7.80;99.90;;;;;;5011356;28;20073;-86
2023/11/26 09:53:05;;;;;;;13.40;3.17;;;8.40;99.90;;;;;;5015499;28;20038;-89
2023/11/26 10:01:10;;;;;;;5.85;2.80;;;7.70;99.90;;;;;;5036766;28;20056;-93
2023/11/26 10:03:56;;;;;;;10.18;2.78;;;7.50;99.90;;;;;;5035953;28;20103;-92
2023/11/26 10:06:31;;;;;;;17.83;3.63;;;8.00;99.90;;;;;;5039230;28;20120;-93
2023/11/26 10:12:17;;;;;;;7.32;3.10;;;7.70;99.90;;;;;;5026556;22;20089;-89
2023/11/26 10:14:42;;;;;;;6.03;2.72;;;8.60;99.90;;;;;;5025805;28;20157;-85
2023/11/26 10:17:10;;;;;;;7.38;2.40;;;7.70;99.90;;;;;;5031873;28;20445;-89
2023/11/26 10:19:36;;;;;;;9.02;2.88;;;8.80;99.90;;;;;;5038214;22;20057;-92
2023/11/26 10:22:57;;;;;;;11.10;2.70;;;9.00;99.90;;;;;;5029651;28;20474;-92
2023/11/26 10:25:48;;;;;;;8.15;3.03;;;7.70;99.90;;;;;;5038427;28;20561;-93
2023/11/26 10:28:20;;;;;;;10.98;2.80;;;7.70;99.90;;;;;;5036021;28;20025;-93
2023/11/26 10:34:21;;;;;;;11.93;2.90;;;7.70;99.90;;;;;;5436451;22;20045;-93
2023/11/26 10:36:50;;;;;;;11.05;2.85;;;7.70;99.90;;;;;;5036873;28;20037;-92
2023/11/26 10:41:47;;;;;;;7.93;2.47;;;7.70;99.90;;;;;;5049664;22;20057;-90
2023/11/26 10:47:22;;;;;;;5.43;1.75;;;7.20;99.90;;;;;;4946144;29;20471;-92
2023/11/26 10:50:12;;;;;;;7.70;2.88;;;8.80;99.90;;;;;;5017161;28;20034;-94
2023/11/26 10:52:45;;;;;;;6.70;1.80;;;8.50;99.90;;;;;;5025207;28;20093;-91
2023/11/26 10:55:45;;;;;;;7.57;1.92;;;7.70;99.90;;;;;;5018679;28;20037;-90
2023/11/26 10:58:19;;;;;;;6.63;2.67;;;7.70;99.90;;;;;;5020310;28;20112;-91
2023/11/26 11:00:55;;;;;;;11.88;2.83;;;8.50;99.90;;;;;;5012928;28;20385;-90
2023/11/26 11:03:29;;;;;;;4.22;1.83;;;7.70;99.90;;;;;;5024985;28;20029;-90
2023/11/26 11:05:56;;;;;;;8.85;2.13;;;8.40;99.90;;;;;;5034131;28;20114;-87
2023/11/26 11:08:42;;;;;;;8.88;2.13;;;7.50;99.90;;;;;;5032457;28;20030;-92
2023/11/26 11:11:29;;;;;;;8.95;2.05;;;7.60;99.90;;;;;;5000937;28;20062;-94
2023/11/26 11:14:01;;;;;;;7.18;2.17;;;7.60;99.90;;;;;;4986909;28;20118;-92
2023/11/26 11:16:27;;;;;;;5.22;1.35;;;8.20;99.90;;;;;;5016193;28;20033;-93
2023/11/26 11:18:53;;;;;;;4.95;1.98;;;7.70;99.90;;;;;;5018424;28;20026;-89
2023/11/26 11:21:19;;;;;;;10.93;1.88;;;8.50;99.90;;;;;;5011479;28;20026;-93
2023/11/26 11:23:49;;;;;;;6.00;2.17;;;8.50;99.90;;;;;;5012082;28;20030;-93
2023/11/26 11:26:17;;;;;;;5.03;1.45;;;8.60;99.90;;;;;;5033106;28;20034;-91
2023/11/26 11:28:51;;;;;;;3.75;1.70;;;7.70;99.90;;;;;;5025514;28;20026;-90
2023/11/26 11:31:19;;;;;;;5.15;1.70;;;8.00;99.90;;;;;;5017933;28;20041;-92
2023/11/26 11:34:00;;;;;;;7.13;1.83;;;8.80;99.90;;;;;;5017173;28;20032;-92
2023/11/26 11:36:41;;;;;;;5.20;1.23;;;8.40;99.90;;;;;;5016620;28;20030;-93
2023/11/26 11:39:13;;;;;;;7.03;1.67;;;8.10;99.90;;;;;;5010409;28;20029;-92
2023/11/26 11:41:57;;;;;;;6.85;1.63;;;7.70;99.90;;;;;;5011873;28;20050;-90
2023/11/26 11:44:28;;;;;;;6.78;1.73;;;7.70;99.90;;;;;;5001051;28;20070;-92
2023/11/26 11:46:55;;;;;;;7.63;2.38;;;7.70;99.90;;;;;;4997275;28;20022;-91
2023/11/26 11:49:21;;;;;;;8.98;2.00;;;8.80;99.90;;;;;;4997059;28;20026;-94
2023/11/26 11:51:46;;;;;;;10.95;1.90;;;7.20;99.90;;;;;;4996829;28;20042;-91
2023/11/26 11:54:32;;;;;;;9.15;2.70;;;8.80;99.90;;;;;;4996669;28;20038;-91
2023/11/26 11:57:00;;;;;;;4.75;1.60;;;7.80;99.90;;;;;;5027400;23;20068;-92
2023/11/26 11:59:26;;;;;;;3.05;1.08;;;8.90;99.90;;;;;;5039442;28;20026;-94
2023/11/26 12:01:52;;;;;;;3.90;0.95;;;8.20;99.90;;;;;;5021355;28;20076;-91
2023/11/26 12:04:36;;;;;;;6.15;1.40;;;7.80;99.90;;;;;;5032277;28;20022;-90
2023/11/26 12:07:02;;;;;;;3.72;1.05;;;8.50;99.90;;;;;;5034836;28;20029;-91
2023/11/26 12:09:42;;;;;;;1.77;0.70;;;7.80;99.90;;;;;;5035657;28;20354;-91
2023/11/26 12:12:09;;;;;;;3.65;1.20;;;7.80;99.90;;;;;;5020001;28;20083;-93
2023/11/26 12:14:37;;;;;;;5.32;0.60;;;9.00;99.90;;;;;;5126909;22;20085;-89
2023/11/26 12:17:07;;;;;;;1.80;0.63;;;9.10;99.90;;;;;;5040693;28;20024;-90
2023/11/26 12:19:49;;;;;;;4.57;0.63;;;8.70;99.90;;;;;;5048370;28;20109;-92
2023/11/26 12:22:16;;;;;;;1.85;0.63;;;8.60;99.90;;;;;;5042816;28;20029;-92
2023/11/26 12:24:42;;;;;;;4.45;1.42;;;7.90;99.90;;;;;;5035769;28;20036;-91
2023/11/26 12:27:22;;;;;;;3.97;1.55;;;9.00;99.90;;;;;;5017613;28;20022;-92
2023/11/26 12:29:50;;;;;;;7.18;1.05;;;8.50;99.90;;;;;;5016184;28;20030;-94
2023/11/26 12:32:20;;;;;;;4.72;0.85;;;7.90;99.90;;;;;;5014844;28;20080;-90
2023/11/26 12:35:11;;;;;;;4.85;0.70;;;7.80;99.90;;;;;;5015652;28;20037;-95
2023/11/26 12:37:57;;;;;;;2.25;0.73;;;8.30;99.90;;;;;;5020597;28;20029;-94
2023/11/26 12:40:24;;;;;;;2.83;0.80;;;7.80;99.90;;;;;;5019921;28;20088;-93
2023/11/26 12:43:02;;;;;;;1.50;0.70;;;8.60;99.90;;;;;;5017033;28;20022;-94
2023/11/26 12:45:44;;;;;;;3.60;0.85;;;7.80;99.90;;;;;;5019128;28;20045;-92
2023/11/26 12:48:11;;;;;;;1.30;0.73;;;7.80;99.90;;;;;;5014883;28;20026;-93
2023/11/26 12:50:41;;;;;;;2.83;1.10;;;8.60;99.90;;;;;;5038789;28;20053;-92
2023/11/26 13:00:47;;;;;;;4.40;0.70;;;7.80;99.90;;;;;;5035986;28;20054;-91
2023/11/26 13:03:20;;;;;;;2.95;0.85;;;9.30;99.90;;;;;;5037759;28;20021;-92
2023/11/26 13:06:25;;;;;;;2.67;1.20;;;8.80;99.90;;;;;;5032316;28;20032;-94
2023/11/26 13:09:08;;;;;;;9.50;2.85;;;7.40;99.90;;;;;;5240796;22;20046;-93
2023/11/26 13:11:40;;;;;;;5.80;2.00;;;7.90;99.90;;;;;;5048159;28;20087;-94
2023/11/26 13:14:20;;;;;;;4.57;2.00;;;8.80;99.90;;;;;;5057454;28;20025;-95
2023/11/26 13:16:55;;;;;;;4.53;1.88;;;8.70;99.90;;;;;;5052236;28;20105;-95
2023/11/26 13:19:20;;;;;;;6.57;2.40;;;7.40;99.90;;;;;;5042756;28;20429;-93
2023/11/26 13:22:06;;;;;;;9.18;2.17;;;9.10;99.90;;;;;;5594096;22;20046;-94
2023/11/26 13:24:32;;;;;;;3.33;1.67;;;8.00;99.90;;;;;;5022092;28;20033;-94
2023/11/26 13:27:03;;;;;;;7.70;1.88;;;8.00;99.90;;;;;;5015898;28;20034;-93
2023/11/26 13:29:29;;;;;;;8.15;2.42;;;8.00;99.90;;;;;;5000653;28;20026;-95
2023/11/26 13:31:55;;;;;;;5.45;1.70;;;8.00;99.90;;;;;;5021088;28;20367;-95
2023/11/26 13:34:20;;;;;;;3.40;1.60;;;8.90;99.90;;;;;;5022510;28;20069;-94
2023/11/26 13:37:04;;;;;;;5.70;1.70;;;8.00;99.90;;;;;;5032803;28;20014;-94
2023/11/26 13:39:43;;;;;;;3.95;1.80;;;8.00;99.90;;;;;;5015934;28;20069;-92
2023/11/26 13:42:09;;;;;;;10.48;2.13;;;7.90;99.90;;;;;;5024476;28;20046;-94
2023/11/26 13:44:45;;;;;;;4.80;1.90;;;8.80;99.90;;;;;;5022512;28;20053;-94
2023/11/26 13:47:12;;;;;;;3.60;1.63;;;9.10;99.90;;;;;;5050723;22;20060;-93
2023/11/26 13:49:55;;;;;;;7.13;1.77;;;8.50;99.90;;;;;;5063608;28;20033;-93
2023/11/26 13:52:25;;;;;;;8.25;1.95;;;8.50;99.90;;;;;;5052909;28;20055;-94
2023/11/26 13:57:44;;;;;;;6.22;1.58;;;7.90;99.90;;;;;;5489545;22;20065;-93
2023/11/26 14:05:57;;;;;;;4.68;1.85;;;7.80;99.90;;;;;;5094784;22;20045;-94
2023/11/26 14:08:38;;;;;;;8.10;1.75;;;7.70;99.90;;;;;;5025903;22;20099;-94
2023/11/26 14:11:42;;;;;;;7.57;2.22;;;7.80;99.90;;;;;;5052428;22;20064;-95
2023/11/26 14:20:47;;;;;;;9.52;2.03;;;7.70;99.90;;;;;;5058291;22;20057;-95
2023/11/26 14:23:25;;;;;;;6.63;1.90;;;7.70;99.90;;;;;;5047648;28;20211;-94
2023/11/26 14:28:49;;;;;;;5.72;2.20;;;7.80;99.90;;;;;;5216781;22;20189;-95
2023/11/26 14:34:09;;;;;;;9.82;2.50;;;7.80;99.90;;;;;;5044819;23;20520;-95
2023/11/26 14:36:43;;;;;;;9.25;2.10;;;7.60;99.90;;;;;;5054463;22;20144;-95
2023/11/26 14:39:29;;;;;;;11.63;3.15;;;8.50;99.90;;;;;;5046920;22;20041;-96
2023/11/26 14:44:36;;;;;;;;;;;7.90;99.90;;;;;;5110684;22;20046;-92
2023/11/26 14:47:06;;;;;;;6.53;3.65;;;8.20;99.90;;;;;;5038440;28;19917;-93
2023/11/26 15:10:35;;;;;;;8.88;3.90;;;8.10;99.90;;;;;;5247588;22;20054;-93
2023/11/26 15:17:10;;;;;;;15.55;3.90;;;8.70;99.90;;;;;;4939200;29;20043;-94
2023/11/26 15:19:50;;;;;;;9.60;4.00;;;8.50;99.90;;;;;;4939070;29;20071;-94
2023/11/26 15:25:11;;;;;;;11.15;3.55;;;8.00;99.90;;;;;;5220334;22;20064;-91
2023/11/26 15:27:40;;;;;;;11.45;3.47;;;8.20;99.90;;;;;;5026349;28;20367;-92
2023/11/26 15:30:14;;;;;;;9.25;3.47;;;9.10;99.90;;;;;;5027722;28;20568;-93
2023/11/26 15:33:23;;;;;;;12.98;2.95;;;8.10;99.90;;;;;;5038421;28;20044;-95
2023/11/26 15:35:48;;;;;;;7.93;3.00;;;8.10;99.90;;;;;;5005484;28;20189;-90
2023/11/26 15:38:14;;;;;;;6.32;2.72;;;8.80;99.90;;;;;;5039863;28;20029;-94
2023/11/26 15:40:52;;;;;;;11.23;3.05;;;8.20;99.90;;;;;;5039109;28;20044;-94
2023/11/26 15:43:18;;;;;;;8.55;3.13;;;8.80;99.90;;;;;;5037180;28;20075;-93
2023/11/26 15:46:03;;;;;;;7.88;2.30;;;8.00;99.90;;;;;;5037989;28;20025;-94
2023/11/26 15:48:33;;;;;;;7.57;3.10;;;8.00;99.90;;;;;;5021966;28;20076;-93
2023/11/26 15:51:03;;;;;;;6.03;2.53;;;8.00;99.90;;;;;;5053158;28;20029;-95
2023/11/26 15:53:29;;;;;;;;;;;8.80;99.90;;;;;;5037559;28;20017;-91
2023/11/26 15:56:17;;;;;;;6.88;2.67;;;8.50;99.90;;;;;;5042837;28;19927;-94
2023/11/26 15:58:44;;;;;;;9.07;2.22;;;7.00;99.90;;;;;;5031313;28;20131;-92
2023/11/26 16:01:35;;;;;;;7.85;2.45;;;8.70;99.90;;;;;;5030438;28;20037;-93
2023/11/26 16:04:45;;;;;;;8.07;2.22;;;7.80;99.90;;;;;;5023615;28;20038;-93
2023/11/26 16:12:57;;;;;;;8.65;2.72;;;7.90;99.90;;;;;;5222685;22;20024;-94
2023/11/26 16:15:23;;;;;;;10.43;3.10;;;7.60;99.90;;;;;;5034577;28;20113;-95
2023/11/26 16:18:37;;;;;;;12.85;3.58;;;8.00;99.90;;;;;;5018690;28;20030;-91
2023/11/26 16:24:01;;;;;;;9.15;3.03;;;7.90;99.90;;;;;;5023399;28;20029;-90
2023/11/26 16:26:33;;;;;;;5.90;2.97;;;8.70;99.90;;;;;;5014944;28;20026;-94
2023/11/26 16:31:41;;;;;;;10.30;2.20;;;7.90;99.90;;;;;;5043659;22;20053;-92
2023/11/26 16:34:06;;;;;;;5.72;2.20;;;8.90;99.90;;;;;;5040064;28;20026;-90
2023/11/26 16:40:07;;;;;;;12.27;3.22;;;8.00;99.90;;;;;;5036296;22;20120;-89
2023/11/26 16:45:36;;;;;;;8.30;3.65;;;8.00;99.90;;;;;;5257692;22;20037;-91
2023/11/26 16:50:55;;;;;;;9.27;3.67;;;8.10;99.90;;;;;;5027898;28;20147;-94
2023/11/26 16:53:23;;;;;;;10.70;3.58;;;7.30;99.90;;;;;;5020979;28;20404;-91
2023/11/26 16:55:52;;;;;;;9.45;4.00;;;7.80;99.90;;;;;;5029617;28;20060;-91
2023/11/26 16:58:18;;;;;;;11.18;3.72;;;8.80;99.90;;;;;;5012949;28;20034;-93
2023/11/26 17:00:51;;;;;;;17.15;4.40;;;9.60;99.90;;;;;;5033212;28;20061;-92
2023/11/26 17:03:16;;;;;;;12.27;4.50;;;8.00;99.90;;;;;;5024121;28;20048;-93
2023/11/26 17:05:46;;;;;;;5.55;2.97;;;8.10;99.90;;;;;;5026884;28;20034;-94
2023/11/26 17:08:34;;;;;;;15.90;4.65;;;9.00;99.90;;;;;;5028958;28;20006;-94
2023/11/26 17:11:04;;;;;;;8.55;3.60;;;8.50;99.90;;;;;;5029682;28;20049;-90
2023/11/26 17:13:30;;;;;;;13.35;4.18;;;8.00;99.90;;;;;;5019587;28;20114;-92
2023/11/26 17:16:05;;;;;;;13.13;3.60;;;8.40;99.90;;;;;;5022156;28;20053;-95
2023/11/26 17:18:36;;;;;;;9.98;3.83;;;8.00;99.90;;;;;;5024658;28;20168;-90
2023/11/26 17:21:01;;;;;;;;;;;8.00;99.90;;;;;;5020235;28;20532;-89
2023/11/26 17:23:27;;;;;;;11.98;3.10;;;8.00;99.90;;;;;;5021724;28;19909;-91
2023/11/26 17:25:55;;;;;;;11.50;3.30;;;8.00;99.90;;;;;;5016431;28;20022;-89
2023/11/26 17:28:21;;;;;;;9.60;3.25;;;8.00;99.90;;;;;;5017970;28;20034;-90
2023/11/26 17:30:55;;;;;;;10.32;3.03;;;8.80;99.90;;;;;;5015476;28;20059;-91
2023/11/26 17:33:26;;;;;;;10.35;3.35;;;8.00;99.90;;;;;;5019067;28;20104;-92
2023/11/26 17:36:04;;;;;;;11.88;3.28;;;8.60;99.90;;;;;;5027958;28;20014;-89
2023/11/26 17:38:37;;;;;;;12.30;4.55;;;7.90;99.90;;;;;;5034996;28;20056;-91
2023/11/26 17:41:17;;;;;;;10.82;3.55;;;8.40;99.90;;;;;;5005105;28;20026;-94
2023/11/26 17:44:04;;;;;;;;;;;7.90;99.90;;;;;;5030221;28;20026;-94
2023/11/26 17:49:00;;;;;;;13.13;3.90;;;7.80;99.90;;;;;;5203506;22;20418;-92
2023/11/26 18:13:44;;;;;;;14.55;6.40;;;7.70;99.90;;;;;;5240425;23;20066;-93
2023/11/26 18:16:09;;;;;;;13.68;5.40;;;7.60;99.90;;;;;;5075141;23;20034;-86
2023/11/26 18:18:35;;;;;;;13.57;6.18;;;8.20;99.90;;;;;;5025252;28;20093;-92
2023/11/26 18:21:01;;;;;;;23.20;8.15;;;8.50;99.90;;;;;;5020031;28;20076;-93
2023/11/26 18:36:34;;;;;;;15.38;7.35;;;7.60;99.90;;;;;;5083567;22;20053;-93
2023/11/26 18:41:40;;;;;;;15.63;7.07;;;7.60;99.90;;;;;;5052201;22;20144;-92
2023/11/26 18:44:22;;;;;;;20.40;9.02;;;8.10;99.90;;;;;;5036296;28;20033;-93
2023/11/26 18:46:50;;;;;;;16.15;8.07;;;7.60;99.90;;;;;;5035197;28;20034;-93
2023/11/26 18:49:21;;;;;;;18.50;9.05;;;7.00;99.90;;;;;;5033988;28;20030;-91
2023/11/26 18:51:57;;;;;;;17.80;8.68;;;8.40;99.90;;;;;;5031305;28;20479;-92
2023/11/26 18:54:31;;;;;;;13.73;8.57;;;7.90;99.90;;;;;;5030722;28;20026;-93
2023/11/26 18:57:02;;;;;;;18.23;9.15;;;7.50;99.90;;;;;;5034322;28;20037;-92
2023/11/26 18:59:43;;;;;;;23.48;9.55;;;8.30;99.90;;;;;;5042136;22;20086;-92
2023/11/26 19:02:09;;;;;;;19.40;9.25;;;8.80;99.90;;;;;;5036519;28;20136;-93
2023/11/26 19:04:37;;;;;;;20.13;9.02;;;8.10;99.90;;;;;;5035675;28;20053;-95